Time;durP1;ratioP1;P1;durP2;ratioP2;P2;SDS_P1;SDS_P2;PMS_P1;PMS_P2;Temp;Humidity;BMP_temperature;BMP_pressure;BME280_temperature;BME280_humidity;BME280_pressure;Samples;Min_cycle;Max_cycle;Signal;HPM_P1;HPM_P2
2023/03/28 00:02:03;;;;;;;4.70;1.90;;;5.00;99.90;;;;;;4965712;28;20043;-73
2023/03/28 00:04:31;;;;;;;4.00;1.58;;;5.10;99.90;;;;;;4965219;28;20039;-72
2023/03/28 00:06:58;;;;;;;5.85;2.42;;;5.00;99.90;;;;;;4963136;28;20042;-71
2023/03/28 00:09:26;;;;;;;3.83;1.92;;;4.90;99.90;;;;;;4964517;28;20122;-73
2023/03/28 00:11:55;;;;;;;3.50;1.98;;;4.90;99.90;;;;;;4961543;28;20046;-73
2023/03/28 00:14:23;;;;;;;5.88;2.10;;;4.90;99.90;;;;;;4964732;28;20059;-73
2023/03/28 00:16:51;;;;;;;3.15;1.65;;;4.80;99.90;;;;;;4974352;28;20044;-72
2023/03/28 00:19:20;;;;;;;4.82;1.73;;;4.90;99.90;;;;;;4976589;28;20055;-72
2023/03/28 00:21:50;;;;;;;5.55;2.17;;;4.80;99.90;;;;;;4969715;28;20058;-73
2023/03/28 00:24:20;;;;;;;7.32;1.80;;;4.80;99.90;;;;;;4987849;28;20326;-73
2023/03/28 00:26:53;;;;;;;3.95;2.00;;;4.80;99.90;;;;;;4964581;28;20067;-73
2023/03/28 00:29:24;;;;;;;6.63;2.25;;;4.70;99.90;;;;;;4962595;28;20133;-71
2023/03/28 00:31:52;;;;;;;4.18;2.05;;;4.60;99.90;;;;;;4959917;28;20059;-73
2023/03/28 00:34:19;;;;;;;7.30;2.38;;;4.60;99.90;;;;;;4963047;28;20047;-74
2023/03/28 00:36:47;;;;;;;3.95;1.90;;;4.50;99.90;;;;;;4986100;28;20439;-73
2023/03/28 00:39:14;;;;;;;5.95;1.83;;;4.60;99.90;;;;;;4981775;28;20056;-74
2023/03/28 00:41:44;;;;;;;4.75;1.70;;;4.50;99.90;;;;;;4969098;28;20039;-74
2023/03/28 00:44:45;;;;;;;4.18;2.05;;;4.60;99.90;;;;;;4994436;28;20159;-72
2023/03/28 00:47:24;;;;;;;6.18;2.72;;;4.60;99.90;;;;;;4975420;28;20047;-73
2023/03/28 00:49:55;;;;;;;8.10;3.10;;;4.60;99.90;;;;;;4970016;28;20253;-71
2023/03/28 00:52:25;;;;;;;5.82;2.13;;;4.70;99.90;;;;;;4970740;28;20134;-71
2023/03/28 00:54:56;;;;;;;4.82;1.70;;;4.60;99.90;;;;;;4975829;28;20139;-73
2023/03/28 00:57:24;;;;;;;5.47;1.98;;;4.60;99.90;;;;;;4972470;28;20051;-73
2023/03/28 00:59:54;;;;;;;6.20;2.17;;;4.60;99.90;;;;;;4967971;28;20411;-76
2023/03/28 01:02:21;;;;;;;7.18;2.03;;;4.60;99.90;;;;;;4987478;28;20055;-72
2023/03/28 01:04:56;;;;;;;3.28;1.52;;;4.60;99.90;;;;;;4976329;28;20050;-73
2023/03/28 01:07:25;;;;;;;6.78;2.30;;;4.60;99.90;;;;;;4997844;28;20044;-73
2023/03/28 01:09:53;;;;;;;4.68;2.20;;;4.50;99.90;;;;;;4979164;28;20040;-71
2023/03/28 01:12:21;;;;;;;5.60;2.13;;;4.40;99.90;;;;;;4999826;28;20045;-71
2023/03/28 01:14:49;;;;;;;7.07;2.33;;;4.30;99.90;;;;;;5005024;28;20062;-73
2023/03/28 01:17:18;;;;;;;5.97;2.53;;;4.30;99.90;;;;;;4976686;28;20121;-73
2023/03/28 01:20:01;;;;;;;5.10;2.22;;;4.30;99.90;;;;;;4973535;28;20448;-71
2023/03/28 01:23:00;;;;;;;4.07;1.67;;;4.20;99.90;;;;;;4972114;28;20047;-73
2023/03/28 01:26:08;;;;;;;5.95;2.20;;;4.30;99.90;;;;;;4962572;28;20517;-72
2023/03/28 01:29:11;;;;;;;5.38;2.35;;;4.20;99.90;;;;;;4946381;28;20040;-72
2023/03/28 01:32:00;;;;;;;8.80;3.42;;;4.10;99.90;;;;;;4959801;28;20067;-74
2023/03/28 01:35:21;;;;;;;6.97;3.17;;;4.10;99.90;;;;;;4959310;28;20039;-71
2023/03/28 01:37:59;;;;;;;13.75;4.20;;;4.00;99.90;;;;;;4959403;28;20054;-72
2023/03/28 01:40:37;;;;;;;8.75;4.00;;;4.00;99.90;;;;;;4959838;28;20035;-72
2023/03/28 01:43:20;;;;;;;11.40;4.50;;;4.00;99.90;;;;;;4983581;28;20051;-72
2023/03/28 01:45:56;;;;;;;8.85;4.72;;;3.90;99.90;;;;;;4961946;28;20039;-73
2023/03/28 01:48:36;;;;;;;10.45;4.28;;;3.90;99.90;;;;;;4961998;28;20529;-72
2023/03/28 01:51:11;;;;;;;11.05;4.97;;;3.90;99.90;;;;;;4998428;28;20051;-71
2023/03/28 01:53:46;;;;;;;15.20;4.63;;;3.90;99.90;;;;;;4971727;28;20049;-74
2023/03/28 01:56:22;;;;;;;10.70;4.60;;;3.90;99.90;;;;;;4963634;28;20047;-73
2023/03/28 01:58:54;;;;;;;;;;;3.80;99.90;;;;;;4983782;28;20047;-73
2023/03/28 02:01:35;;;;;;;9.23;4.05;;;3.70;99.90;;;;;;4979952;28;19985;-75
2023/03/28 02:04:13;;;;;;;10.52;4.57;;;3.70;99.90;;;;;;4958732;28;20487;-73
2023/03/28 02:06:54;;;;;;;8.60;4.18;;;3.70;99.90;;;;;;4962587;28;20039;-71
2023/03/28 02:09:29;;;;;;;8.25;4.30;;;3.70;99.90;;;;;;4955816;28;20047;-73
2023/03/28 02:12:08;;;;;;;10.07;4.45;;;3.70;99.90;;;;;;4960657;28;20046;-73
2023/03/28 02:14:53;;;;;;;8.48;3.97;;;3.70;99.90;;;;;;4961392;28;20071;-73
2023/03/28 02:17:54;;;;;;;6.25;3.35;;;3.70;99.90;;;;;;4960435;28;20051;-73
2023/03/28 02:20:40;;;;;;;10.02;4.40;;;3.70;99.90;;;;;;4961181;28;20051;-72
2023/03/28 02:23:22;;;;;;;8.65;3.67;;;3.70;99.90;;;;;;4984419;28;20077;-72
2023/03/28 02:26:11;;;;;;;8.25;3.42;;;3.70;99.90;;;;;;4960508;28;20226;-72
2023/03/28 02:28:58;;;;;;;10.00;3.72;;;3.60;99.90;;;;;;4959538;28;20047;-72
2023/03/28 02:31:32;;;;;;;7.47;3.20;;;3.60;99.90;;;;;;4961553;28;20049;-74
2023/03/28 02:34:00;;;;;;;8.18;3.20;;;3.60;1.00;;;;;;4984108;28;20049;-73
2023/03/28 02:36:39;;;;;;;7.78;3.63;;;3.50;1.00;;;;;;4962580;28;20399;-72
2023/03/28 02:39:28;;;;;;;10.00;3.60;;;3.50;1.00;;;;;;4959844;28;20629;-72
2023/03/28 02:42:34;;;;;;;10.35;4.10;;;3.60;1.00;;;;;;4961777;28;20137;-73
2023/03/28 02:45:28;;;;;;;10.63;4.43;;;3.50;1.00;;;;;;4919165;29;20048;-73
2023/03/28 02:48:08;;;;;;;8.10;3.78;;;3.50;1.00;;;;;;4961665;28;20058;-72
2023/03/28 02:50:43;;;;;;;9.75;4.07;;;3.50;1.00;;;;;;4983399;28;20499;-72
2023/03/28 02:53:14;;;;;;;8.25;3.88;;;3.40;99.90;;;;;;4982586;28;20043;-71
2023/03/28 02:55:53;;;;;;;11.35;4.07;;;3.40;99.90;;;;;;4955899;28;20049;-72
2023/03/28 02:58:46;;;;;;;11.75;4.93;;;3.40;1.00;;;;;;4961011;28;20050;-72
2023/03/28 03:01:14;;;;;;;15.18;5.00;;;3.40;1.00;;;;;;4954975;28;20476;-73
2023/03/28 03:03:42;;;;;;;15.00;5.05;;;3.40;1.00;;;;;;4981594;28;20043;-73
2023/03/28 03:06:11;;;;;;;11.35;5.10;;;3.40;98.40;;;;;;4961654;28;20142;-72
2023/03/28 03:08:38;;;;;;;9.15;5.13;;;3.30;99.90;;;;;;4958741;28;20051;-72
2023/03/28 03:11:06;;;;;;;15.23;5.60;;;3.30;1.00;;;;;;4957140;28;20046;-73
2023/03/28 03:13:34;;;;;;;16.95;6.22;;;3.30;1.00;;;;;;4958070;28;20714;-72
2023/03/28 03:16:05;;;;;;;12.75;6.20;;;3.30;1.00;;;;;;4955331;28;20063;-72
2023/03/28 03:18:33;;;;;;;11.73;6.18;;;3.30;99.90;;;;;;4956395;28;20039;-73
2023/03/28 03:21:01;;;;;;;12.82;6.35;;;3.20;99.90;;;;;;4957999;28;20039;-73
2023/03/28 03:23:29;;;;;;;9.35;5.22;;;3.20;1.00;;;;;;4957470;28;20074;-73
2023/03/28 03:25:59;;;;;;;10.88;5.20;;;3.20;99.90;;;;;;4981751;28;20055;-70
2023/03/28 03:28:32;;;;;;;18.27;5.82;;;3.20;1.00;;;;;;4985339;28;20055;-72
2023/03/28 03:31:04;;;;;;;11.98;5.78;;;3.20;99.90;;;;;;4962192;28;20577;-72
2023/03/28 03:33:31;;;;;;;10.32;5.13;;;3.10;1.00;;;;;;4963786;28;20053;-72
2023/03/28 03:36:03;;;;;;;10.40;4.57;;;3.10;1.00;;;;;;4984579;28;20070;-72
2023/03/28 03:38:31;;;;;;;10.52;4.68;;;3.10;99.90;;;;;;4960118;28;20043;-72
2023/03/28 03:40:58;;;;;;;11.50;5.55;;;3.10;14.80;;;;;;4985952;28;20062;-71
2023/03/28 03:43:27;;;;;;;13.38;7.13;;;3.00;99.90;;;;;;4960769;28;20046;-73
2023/03/28 03:45:55;;;;;;;11.27;6.10;;;3.00;1.00;;;;;;4960845;28;20452;-72
2023/03/28 03:48:24;;;;;;;13.65;7.22;;;3.00;99.90;;;;;;4960235;28;20070;-72
2023/03/28 03:50:57;;;;;;;14.52;7.40;;;2.90;99.90;;;;;;4963081;28;20084;-72
2023/03/28 03:53:25;;;;;;;11.45;7.00;;;3.00;1.00;;;;;;4987064;28;20047;-72
2023/03/28 03:56:08;;;;;;;11.60;7.00;;;3.00;1.00;;;;;;4960967;28;20696;-72
2023/03/28 03:58:55;;;;;;;12.27;6.72;;;3.00;99.90;;;;;;4964488;28;20058;-73
2023/03/28 04:01:28;;;;;;;15.38;8.10;;;2.90;99.90;;;;;;4963487;28;20051;-73
2023/03/28 04:04:00;;;;;;;13.90;8.23;;;2.90;1.00;;;;;;4990877;28;20069;-72
2023/03/28 04:06:37;;;;;;;14.27;8.38;;;2.90;99.90;;;;;;4966900;28;20043;-72
2023/03/28 04:09:08;;;;;;;16.27;8.65;;;2.90;1.00;;;;;;4962532;28;20050;-72
2023/03/28 04:11:51;;;;;;;16.85;8.70;;;2.90;1.00;;;;;;4961587;28;20046;-73
2023/03/28 04:14:18;;;;;;;19.73;9.55;;;2.80;99.90;;;;;;4987202;28;20047;-71
2023/03/28 04:16:49;;;;;;;19.48;9.27;;;2.70;99.90;;;;;;4985357;28;20589;-73
2023/03/28 04:19:19;;;;;;;24.73;9.70;;;2.60;99.90;;;;;;4962041;28;20094;-73
2023/03/28 04:21:51;;;;;;;17.25;8.88;;;2.50;1.00;;;;;;4960888;28;20114;-72
2023/03/28 04:24:28;;;;;;;18.83;9.70;;;2.50;1.00;;;;;;4985064;28;20057;-72
2023/03/28 04:27:34;;;;;;;18.50;10.35;;;2.40;1.00;;;;;;4961401;28;20133;-72
2023/03/28 04:30:01;;;;;;;25.00;12.45;;;2.40;1.00;;;;;;4961951;28;20070;-73
2023/03/28 04:33:00;;;;;;;38.35;20.52;;;2.40;1.00;;;;;;4962101;28;20055;-73
2023/03/28 04:35:29;;;;;;;34.15;18.73;;;2.40;99.90;;;;;;4962088;28;20122;-71
2023/03/28 04:37:57;;;;;;;39.22;21.05;;;2.30;99.90;;;;;;4962053;28;20494;-73
2023/03/28 04:40:28;;;;;;;41.65;21.33;;;2.30;99.90;;;;;;4990052;28;20046;-73
2023/03/28 04:43:28;;;;;;;34.90;17.95;;;2.30;99.90;;;;;;4955597;28;20051;-72
2023/03/28 04:45:57;;;;;;;30.40;17.58;;;2.30;99.90;;;;;;4961513;28;20155;-73
2023/03/28 04:48:25;;;;;;;28.40;16.40;;;2.30;99.90;;;;;;4964397;28;20047;-73
2023/03/28 04:50:55;;;;;;;29.55;16.02;;;2.40;99.90;;;;;;4980970;28;20042;-73
2023/03/28 04:53:23;;;;;;;33.97;17.63;;;2.40;99.90;;;;;;4968699;28;20042;-73
2023/03/28 04:56:16;;;;;;;36.97;20.67;;;2.40;99.90;;;;;;4958272;28;20062;-73
2023/03/28 04:58:43;;;;;;;40.83;23.50;;;2.40;99.90;;;;;;4961027;28;20049;-72
2023/03/28 05:01:12;;;;;;;33.90;17.83;;;2.40;99.90;;;;;;4962030;28;20126;-72
2023/03/28 05:04:06;;;;;;;46.70;24.33;;;2.50;99.90;;;;;;4959299;28;20063;-73
2023/03/28 05:06:35;;;;;;;44.75;24.58;;;2.50;99.90;;;;;;4984304;28;20436;-73
2023/03/28 05:09:03;;;;;;;30.70;17.05;;;2.50;99.90;;;;;;4961753;28;20061;-72
2023/03/28 05:11:32;;;;;;;49.47;27.05;;;2.60;99.90;;;;;;4961246;28;20113;-73
2023/03/28 05:13:59;;;;;;;53.95;27.98;;;2.70;99.90;;;;;;4984532;28;20055;-71
2023/03/28 05:16:36;;;;;;;41.63;23.98;;;2.70;99.90;;;;;;4992928;28;20082;-72
2023/03/28 05:19:23;;;;;;;35.08;18.02;;;2.70;99.90;;;;;;4975213;28;20586;-73
2023/03/28 05:22:06;;;;;;;59.33;32.42;;;2.70;99.90;;;;;;4960568;28;20054;-71
2023/03/28 05:24:36;;;;;;;48.97;27.55;;;2.80;99.90;;;;;;4960172;28;20077;-73
2023/03/28 05:27:03;;;;;;;45.78;25.42;;;2.90;99.90;;;;;;4975990;28;20054;-73
2023/03/28 05:29:31;;;;;;;50.85;27.77;;;3.00;99.90;;;;;;4960244;28;20053;-72
2023/03/28 05:31:59;;;;;;;49.50;25.65;;;3.10;99.90;;;;;;4960080;28;20070;-73
2023/03/28 05:34:30;;;;;;;55.95;28.75;;;3.20;99.90;;;;;;4984332;28;20046;-72
2023/03/28 05:36:58;;;;;;;68.55;28.73;;;3.30;99.90;;;;;;4983818;28;20130;-71
2023/03/28 05:39:30;;;;;;;52.58;27.40;;;3.40;1.00;;;;;;4959585;28;20051;-72
2023/03/28 05:42:04;;;;;;;;;;;3.60;1.00;;;;;;4959850;28;20153;-73
2023/03/28 05:44:35;;;;;;;57.58;30.95;;;3.70;99.90;;;;;;4960345;28;19929;-72
2023/03/28 05:47:21;;;;;;;63.45;32.30;;;3.90;1.00;;;;;;4961744;28;20058;-72
2023/03/28 05:49:49;;;;;;;67.38;33.22;;;4.10;1.00;;;;;;4982570;28;20065;-72
2023/03/28 05:52:17;;;;;;;66.95;31.20;;;4.20;99.90;;;;;;4959771;28;20047;-73
2023/03/28 05:54:49;;;;;;;37.97;21.00;;;4.40;1.00;;;;;;4958488;28;20129;-72
2023/03/28 05:57:18;;;;;;;30.17;14.57;;;4.70;1.00;;;;;;4981752;28;20050;-73
2023/03/28 05:59:45;;;;;;;26.00;11.35;;;4.90;1.00;;;;;;4958964;28;20141;-73
2023/03/28 06:02:17;;;;;;;24.98;12.65;;;4.90;99.90;;;;;;4960201;28;20499;-71
2023/03/28 06:04:45;;;;;;;29.98;12.88;;;5.00;99.90;;;;;;4959547;28;20379;-73
2023/03/28 06:07:14;;;;;;;27.67;13.68;;;5.10;99.90;;;;;;4960206;28;20042;-72
2023/03/28 06:09:45;;;;;;;18.92;9.25;;;5.10;23.30;;;;;;4958095;28;20057;-73
2023/03/28 06:12:14;;;;;;;23.40;11.20;;;5.10;1.00;;;;;;4983804;28;20051;-73
2023/03/28 06:14:50;;;;;;;23.13;11.75;;;5.30;1.00;;;;;;4973991;28;20051;-73
2023/03/28 06:17:25;;;;;;;27.83;12.48;;;5.50;1.00;;;;;;4984524;28;20062;-73
2023/03/28 06:19:57;;;;;;;26.25;13.40;;;5.60;1.00;;;;;;4983825;28;20042;-73
2023/03/28 06:22:25;;;;;;;13.95;6.70;;;5.90;1.00;;;;;;4956956;28;20070;-73
2023/03/28 06:24:59;;;;;;;11.73;5.68;;;5.90;1.00;;;;;;4982909;28;20126;-72
2023/03/28 06:27:30;;;;;;;13.85;5.95;;;6.10;1.00;;;;;;4982269;28;20067;-73
2023/03/28 06:29:58;;;;;;;14.45;7.93;;;6.40;1.00;;;;;;4959723;28;20070;-72
2023/03/28 06:32:27;;;;;;;10.70;5.60;;;6.60;1.00;;;;;;4992254;28;20113;-71
2023/03/28 06:34:54;;;;;;;8.18;3.95;;;6.70;1.00;;;;;;4968114;28;20047;-72
2023/03/28 06:37:24;;;;;;;6.68;2.53;;;6.60;1.00;;;;;;4960290;28;20113;-72
2023/03/28 06:40:03;;;;;;;7.97;3.38;;;6.50;1.00;;;;;;4977082;28;20039;-71
2023/03/28 06:42:33;;;;;;;6.55;2.17;;;6.70;1.00;;;;;;4959648;28;20051;-71
2023/03/28 06:45:15;;;;;;;15.52;2.30;;;6.80;1.00;;;;;;4976338;28;20047;-72
2023/03/28 06:47:54;;;;;;;7.05;2.95;;;6.90;1.00;;;;;;4961060;28;20133;-72
2023/03/28 06:50:31;;;;;;;6.95;2.63;;;7.10;1.00;;;;;;4982152;28;20098;-73
2023/03/28 06:53:02;;;;;;;7.25;2.97;;;7.30;1.00;;;;;;4959090;28;20039;-73
2023/03/28 06:55:30;;;;;;;6.20;2.30;;;7.40;1.00;;;;;;4960548;28;20050;-72
2023/03/28 06:57:59;;;;;;;7.18;2.30;;;7.50;1.00;;;;;;4960551;28;20106;-72
2023/03/28 07:00:33;;;;;;;;;;;7.40;1.00;;;;;;4985288;28;20054;-74
2023/03/28 07:03:19;;;;;;;9.23;3.35;;;7.50;1.00;;;;;;4959840;28;19929;-74
2023/03/28 07:05:47;;;;;;;5.97;2.90;;;7.80;1.00;;;;;;4956811;28;20039;-73
2023/03/28 07:08:14;;;;;;;5.65;2.35;;;7.90;1.00;;;;;;4985993;28;20058;-73
2023/03/28 07:10:43;;;;;;;5.10;2.50;;;8.00;1.00;;;;;;4961063;28;20042;-73
2023/03/28 07:13:12;;;;;;;8.55;2.05;;;8.20;1.00;;;;;;4958527;28;20043;-73
2023/03/28 07:16:00;;;;;;;5.10;2.35;;;8.30;1.00;;;;;;4959366;28;20045;-72
2023/03/28 07:18:28;;;;;;;7.10;3.20;;;8.60;1.00;;;;;;4983690;28;20047;-72
2023/03/28 07:20:56;;;;;;;4.45;2.33;;;8.70;1.00;;;;;;4961547;28;20074;-73
2023/03/28 07:23:24;;;;;;;6.82;3.42;;;8.50;1.00;;;;;;4963774;28;20039;-74
2023/03/28 07:25:53;;;;;;;6.95;2.75;;;8.60;1.00;;;;;;4958454;28;20062;-73
2023/03/28 07:28:24;;;;;;;5.25;2.90;;;8.50;1.00;;;;;;4960799;28;20047;-71
2023/03/28 07:30:54;;;;;;;3.25;1.98;;;8.40;1.00;;;;;;4960592;28;20127;-73
2023/03/28 07:33:22;;;;;;;5.95;2.80;;;8.40;1.00;;;;;;4985279;28;20051;-73
2023/03/28 07:35:51;;;;;;;6.28;2.15;;;8.50;1.00;;;;;;4958877;28;20110;-73
2023/03/28 07:38:21;;;;;;;4.75;2.70;;;8.30;1.00;;;;;;4959983;28;20046;-72
2023/03/28 07:40:55;;;;;;;4.20;2.50;;;8.30;1.00;;;;;;4959733;28;20046;-72
2023/03/28 07:43:24;;;;;;;4.47;2.40;;;8.50;1.00;;;;;;4961855;28;20047;-74
2023/03/28 07:46:01;;;;;;;4.53;2.10;;;8.70;1.00;;;;;;4984176;28;20126;-73
2023/03/28 07:48:29;;;;;;;6.50;3.35;;;8.70;1.00;;;;;;4983269;28;20043;-76
2023/03/28 07:50:58;;;;;;;6.47;2.85;;;8.50;1.00;;;;;;4973669;28;20595;-74
2023/03/28 07:53:26;;;;;;;4.93;2.50;;;8.30;99.90;;;;;;4958342;28;20134;-72
2023/03/28 07:55:55;;;;;;;4.70;2.25;;;8.30;99.90;;;;;;4959574;28;20046;-73
2023/03/28 07:58:28;;;;;;;7.05;1.80;;;8.30;99.90;;;;;;4962257;28;20043;-75
2023/03/28 08:01:05;;;;;;;4.60;1.88;;;8.40;99.90;;;;;;4957825;28;20483;-72
2023/03/28 08:03:45;;;;;;;6.18;1.67;;;8.30;99.90;;;;;;4958401;28;20059;-75
2023/03/28 08:06:16;;;;;;;4.63;1.60;;;8.30;99.90;;;;;;4985224;28;20039;-74
2023/03/28 08:08:45;;;;;;;4.85;1.63;;;8.20;99.90;;;;;;4961354;28;20075;-72
2023/03/28 08:11:22;;;;;;;5.82;1.92;;;8.00;99.90;;;;;;4982623;28;20050;-73
2023/03/28 08:13:52;;;;;;;6.55;1.55;;;8.00;99.90;;;;;;4958306;28;20047;-75
2023/03/28 08:16:23;;;;;;;3.97;1.98;;;7.90;99.90;;;;;;4961438;28;20054;-75
2023/03/28 08:18:52;;;;;;;3.80;1.15;;;7.90;99.90;;;;;;4964632;28;20145;-73
2023/03/28 08:21:20;;;;;;;4.30;1.20;;;7.90;99.90;;;;;;4986378;28;20537;-78
2023/03/28 08:23:48;;;;;;;3.30;1.00;;;7.70;99.90;;;;;;4963893;28;20257;-76
2023/03/28 08:26:35;;;;;;;2.30;0.95;;;7.80;99.90;;;;;;4961007;28;20071;-77
2023/03/28 08:29:05;;;;;;;5.00;1.63;;;7.70;99.90;;;;;;4964882;28;20130;-79
2023/03/28 08:31:33;;;;;;;5.32;2.60;;;7.80;99.90;;;;;;4986832;28;20047;-79
2023/03/28 08:34:09;;;;;;;4.55;1.08;;;8.10;99.90;;;;;;4961561;28;20184;-78
2023/03/28 08:36:41;;;;;;;3.50;1.40;;;8.30;99.90;;;;;;4978717;28;20675;-78
2023/03/28 08:39:20;;;;;;;7.28;2.55;;;8.30;99.90;;;;;;4962182;28;20047;-76
2023/03/28 08:42:20;;;;;;;9.27;2.40;;;8.30;99.90;;;;;;4970072;28;20047;-79
2023/03/28 08:45:07;;;;;;;5.57;1.20;;;8.50;99.90;;;;;;4970055;28;20054;-78
2023/03/28 08:47:42;;;;;;;2.67;1.00;;;8.40;99.90;;;;;;4988472;28;20093;-72
2023/03/28 08:50:18;;;;;;;2.60;1.00;;;8.30;99.90;;;;;;4984880;28;20502;-79
2023/03/28 08:52:47;;;;;;;2.95;1.00;;;8.30;99.90;;;;;;4960097;28;20043;-77
2023/03/28 08:55:28;;;;;;;3.75;1.35;;;8.40;99.90;;;;;;4962904;28;20039;-73
2023/03/28 08:57:57;;;;;;;2.88;1.10;;;8.50;99.90;;;;;;4961565;28;20125;-77
2023/03/28 09:00:29;;;;;;;3.42;1.10;;;8.70;99.90;;;;;;4961032;28;20070;-76
2023/03/28 09:02:58;;;;;;;4.25;1.50;;;8.70;99.90;;;;;;4976778;28;20081;-76
2023/03/28 09:05:35;;;;;;;3.92;1.20;;;8.50;99.90;;;;;;4984779;28;20538;-76
2023/03/28 09:08:27;;;;;;;5.15;2.40;;;8.30;99.90;;;;;;4962896;28;20119;-77
2023/03/28 09:11:03;;;;;;;3.95;1.83;;;8.50;99.90;;;;;;4985145;28;20043;-77
2023/03/28 09:13:44;;;;;;;8.02;1.75;;;8.90;99.90;;;;;;4955657;28;20051;-70
2023/03/28 09:16:30;;;;;;;6.10;1.60;;;8.90;99.90;;;;;;4960778;28;20043;-76
2023/03/28 09:19:36;;;;;;;5.03;1.50;;;8.80;99.90;;;;;;4959822;28;20039;-75
2023/03/28 09:22:32;;;;;;;6.22;2.75;;;8.80;99.90;;;;;;4963427;28;20422;-76
2023/03/28 09:25:17;;;;;;;7.55;2.25;;;8.90;99.90;;;;;;4962160;28;20491;-76
2023/03/28 09:27:54;;;;;;;6.70;2.45;;;8.60;99.90;;;;;;4977967;28;20098;-77
2023/03/28 09:30:27;;;;;;;6.63;2.03;;;8.40;99.90;;;;;;4960821;28;20046;-77
2023/03/28 09:32:59;;;;;;;5.63;2.08;;;8.30;99.90;;;;;;4959992;28;20126;-76
2023/03/28 09:35:30;;;;;;;5.78;2.28;;;7.90;99.90;;;;;;4959365;28;20051;-76
2023/03/28 09:38:03;;;;;;;7.07;1.92;;;8.00;99.90;;;;;;4983612;28;20526;-73
2023/03/28 09:40:32;;;;;;;4.03;1.80;;;8.40;99.90;;;;;;4960327;28;20122;-72
2023/03/28 09:43:35;;;;;;;4.82;1.83;;;8.70;99.90;;;;;;4975957;28;20066;-74
2023/03/28 09:46:29;;;;;;;7.38;3.38;;;8.80;99.90;;;;;;4959945;28;20099;-73
2023/03/28 09:49:15;;;;;;;5.18;2.30;;;8.80;99.90;;;;;;4973508;28;20475;-74
2023/03/28 09:51:42;;;;;;;6.97;2.22;;;8.90;99.90;;;;;;4983697;28;20114;-72
2023/03/28 09:54:10;;;;;;;7.50;1.83;;;9.00;99.90;;;;;;4959646;28;20059;-73
2023/03/28 09:56:41;;;;;;;6.30;2.33;;;9.10;99.90;;;;;;4960687;28;20043;-71
2023/03/28 09:59:29;;;;;;;3.55;1.38;;;9.20;99.90;;;;;;4960110;28;20063;-72
2023/03/28 10:02:02;;;;;;;5.25;1.75;;;9.20;99.90;;;;;;4964550;28;20051;-72
2023/03/28 10:04:38;;;;;;;4.10;1.00;;;9.10;99.90;;;;;;4961341;28;20524;-72
2023/03/28 10:07:29;;;;;;;4.15;1.23;;;8.90;99.90;;;;;;4960422;28;20509;-73
2023/03/28 10:10:17;;;;;;;3.33;1.40;;;9.10;99.90;;;;;;4960014;28;20035;-73
2023/03/28 10:12:47;;;;;;;2.70;1.20;;;9.40;99.90;;;;;;4982992;28;20074;-73
2023/03/28 10:15:40;;;;;;;5.63;1.67;;;9.50;99.90;;;;;;4981808;28;20039;-73
2023/03/28 10:18:28;;;;;;;3.80;1.50;;;9.20;99.90;;;;;;4960360;28;20042;-71
2023/03/28 10:21:30;;;;;;;4.70;2.03;;;9.10;99.90;;;;;;4950833;28;20130;-71
2023/03/28 10:24:15;;;;;;;4.43;1.70;;;9.10;99.90;;;;;;4982786;28;20598;-72
2023/03/28 10:26:48;;;;;;;6.85;2.70;;;9.50;99.90;;;;;;4982789;28;20099;-73
2023/03/28 10:29:16;;;;;;;3.22;1.30;;;9.60;99.90;;;;;;4959900;28;20062;-72
2023/03/28 10:31:48;;;;;;;3.50;1.20;;;9.80;99.90;;;;;;4984177;28;20051;-72
2023/03/28 10:34:36;;;;;;;3.35;1.00;;;10.10;99.90;;;;;;4955432;28;20050;-72
2023/03/28 10:37:27;;;;;;;3.42;1.10;;;10.10;99.90;;;;;;4958257;28;20053;-73
2023/03/28 10:40:31;;;;;;;3.50;1.55;;;9.90;99.90;;;;;;4958955;28;20082;-73
2023/03/28 10:43:02;;;;;;;4.78;2.10;;;10.00;99.90;;;;;;4961181;28;20114;-72
2023/03/28 10:45:49;;;;;;;7.43;2.30;;;9.90;99.90;;;;;;4958644;28;20128;-73
2023/03/28 10:48:30;;;;;;;7.13;1.92;;;9.60;99.90;;;;;;4975426;28;20066;-71
2023/03/28 10:51:09;;;;;;;7.75;3.00;;;9.70;99.90;;;;;;4958749;28;20142;-72
2023/03/28 10:54:08;;;;;;;8.83;1.80;;;10.00;99.90;;;;;;4975480;28;20051;-72
2023/03/28 10:56:41;;;;;;;4.07;1.73;;;10.10;99.90;;;;;;4954107;28;20302;-72
2023/03/28 10:59:29;;;;;;;3.95;1.77;;;10.30;99.90;;;;;;4959477;28;20038;-73
2023/03/28 11:02:25;;;;;;;8.82;2.20;;;10.20;99.90;;;;;;4958906;28;20134;-72
2023/03/28 11:04:58;;;;;;;4.38;1.90;;;10.40;99.90;;;;;;4957534;28;20087;-73
2023/03/28 11:07:32;;;;;;;4.47;2.42;;;10.70;99.90;;;;;;4958513;28;20154;-72
2023/03/28 11:10:15;;;;;;;4.28;1.75;;;10.90;99.90;;;;;;4959009;28;20042;-77
2023/03/28 11:13:13;;;;;;;4.18;1.50;;;10.80;99.90;;;;;;4959467;28;20058;-73
2023/03/28 11:15:53;;;;;;;3.65;1.70;;;11.00;99.90;;;;;;4958596;28;20102;-71
2023/03/28 11:18:55;;;;;;;5.07;2.03;;;11.30;99.90;;;;;;4982257;28;20050;-72
2023/03/28 11:21:32;;;;;;;3.42;1.30;;;11.60;99.90;;;;;;4957965;28;20131;-72
2023/03/28 11:24:11;;;;;;;6.10;2.08;;;11.40;99.90;;;;;;4960259;28;20067;-72
2023/03/28 11:27:18;;;;;;;5.75;2.83;;;11.30;99.90;;;;;;4962190;28;20051;-73
2023/03/28 11:29:55;;;;;;;;;;;11.10;99.90;;;;;;4960675;28;20105;-71
2023/03/28 11:32:34;;;;;;;6.25;1.48;;;10.80;99.90;;;;;;4961407;28;19929;-73
2023/03/28 11:35:07;;;;;;;2.78;1.20;;;10.60;99.90;;;;;;4958407;28;20035;-73
2023/03/28 11:37:39;;;;;;;8.77;2.40;;;10.70;99.90;;;;;;4943494;28;20055;-73
2023/03/28 11:40:18;;;;;;;4.63;2.13;;;10.70;99.90;;;;;;4994245;28;20126;-72
2023/03/28 11:43:28;;;;;;;4.60;1.88;;;10.70;99.90;;;;;;4965462;28;20051;-73
2023/03/28 11:45:59;;;;;;;6.60;2.70;;;10.40;99.90;;;;;;4969480;28;20038;-72
2023/03/28 11:48:32;;;;;;;4.85;2.30;;;10.30;99.90;;;;;;4988382;28;20369;-73
2023/03/28 11:51:08;;;;;;;4.53;1.60;;;10.60;99.90;;;;;;4969228;28;20070;-73
2023/03/28 11:53:55;;;;;;;8.77;2.65;;;10.40;99.90;;;;;;4982542;28;20050;-73
2023/03/28 11:56:34;;;;;;;;;;;10.20;99.90;;;;;;4968432;28;20047;-72
2023/03/28 11:59:19;;;;;;;4.35;1.63;;;10.20;99.90;;;;;;4981129;28;19926;-72
2023/03/28 12:01:53;;;;;;;3.63;1.50;;;9.90;99.90;;;;;;4963159;28;20051;-73
2023/03/28 12:04:26;;;;;;;3.45;1.20;;;9.40;99.90;;;;;;4963504;28;20054;-72
2023/03/28 12:07:05;;;;;;;5.47;1.80;;;9.20;99.90;;;;;;4985384;28;20127;-74
2023/03/28 12:09:57;;;;;;;4.55;1.50;;;9.00;99.90;;;;;;4961395;28;20038;-73
2023/03/28 12:12:30;;;;;;;4.88;1.73;;;9.20;99.90;;;;;;4963238;28;20050;-71
2023/03/28 12:15:05;;;;;;;5.40;1.98;;;9.60;99.90;;;;;;4960784;28;20042;-73
2023/03/28 12:18:01;;;;;;;4.47;2.13;;;10.00;99.90;;;;;;4962853;28;20059;-72
2023/03/28 12:20:37;;;;;;;5.75;1.80;;;9.80;99.90;;;;;;4956913;28;20055;-72
2023/03/28 12:23:18;;;;;;;6.05;1.45;;;9.30;99.90;;;;;;4976903;28;20400;-72
2023/03/28 12:26:16;;;;;;;3.75;1.90;;;8.80;99.90;;;;;;4964251;28;20045;-77
2023/03/28 12:28:50;;;;;;;5.65;2.00;;;8.80;99.90;;;;;;4960813;28;20055;-76
2023/03/28 12:31:26;;;;;;;4.55;2.00;;;8.90;99.90;;;;;;4986320;28;20081;-76
2023/03/28 12:34:08;;;;;;;3.70;1.90;;;9.10;99.90;;;;;;4986449;28;20036;-72
2023/03/28 12:37:10;;;;;;;11.38;3.10;;;9.30;99.90;;;;;;4961302;28;20050;-76
2023/03/28 12:39:47;;;;;;;4.43;1.60;;;9.40;99.90;;;;;;4961201;28;20062;-70
2023/03/28 12:42:22;;;;;;;5.88;1.92;;;9.60;99.90;;;;;;4971202;28;20536;-72
2023/03/28 12:44:52;;;;;;;4.40;1.70;;;9.90;99.90;;;;;;4987826;28;20054;-73
2023/03/28 12:47:24;;;;;;;6.20;1.95;;;10.30;99.90;;;;;;4976490;28;20059;-75
2023/03/28 12:49:58;;;;;;;3.72;1.25;;;10.30;99.90;;;;;;4961018;28;20066;-76
2023/03/28 12:52:31;;;;;;;3.58;1.50;;;10.20;99.90;;;;;;4985264;28;20039;-72
2023/03/28 12:55:01;;;;;;;6.15;1.30;;;10.10;99.90;;;;;;4958325;28;20058;-76
2023/03/28 12:57:45;;;;;;;16.27;2.50;;;9.90;99.90;;;;;;4984805;28;20067;-74
2023/03/28 13:00:49;;;;;;;7.03;3.60;;;9.60;99.90;;;;;;4958960;28;20046;-74
2023/03/28 13:04:01;;;;;;;26.35;12.45;;;9.10;99.90;;;;;;4959231;28;20039;-76
2023/03/28 13:06:47;;;;;;;9.57;3.53;;;8.80;99.90;;;;;;4959430;28;20141;-74
2023/03/28 13:09:39;;;;;;;7.47;3.92;;;9.10;99.90;;;;;;4959015;28;20047;-78
2023/03/28 13:12:24;;;;;;;13.30;5.82;;;9.50;99.90;;;;;;4961185;28;20043;-75
2023/03/28 13:14:59;;;;;;;6.60;2.17;;;9.90;99.90;;;;;;4960888;28;20081;-81
2023/03/28 13:17:29;;;;;;;10.73;2.60;;;10.20;99.90;;;;;;4960232;28;20059;-73
2023/03/28 13:20:09;;;;;;;2.85;1.25;;;10.40;99.90;;;;;;4961082;28;20066;-73
2023/03/28 13:22:43;;;;;;;7.20;3.40;;;10.70;99.90;;;;;;4959275;28;20066;-72
2023/03/28 13:25:31;;;;;;;9.90;4.20;;;10.60;99.90;;;;;;4961767;28;20073;-73
2023/03/28 13:28:00;;;;;;;6.95;2.70;;;10.20;99.90;;;;;;4958917;28;20055;-72
2023/03/28 13:30:29;;;;;;;4.55;2.25;;;9.80;99.90;;;;;;4961313;28;20043;-73
2023/03/28 13:32:59;;;;;;;4.50;1.98;;;9.50;99.90;;;;;;4959226;28;20455;-74
2023/03/28 13:35:42;;;;;;;4.68;1.70;;;9.50;99.90;;;;;;4960196;28;20066;-72
2023/03/28 13:38:33;;;;;;;3.35;1.67;;;9.60;99.90;;;;;;4965197;28;20654;-73
2023/03/28 13:41:05;;;;;;;5.43;2.08;;;9.70;99.90;;;;;;4999632;28;20071;-71
2023/03/28 13:43:43;;;;;;;3.40;1.48;;;10.10;99.90;;;;;;4976740;28;20076;-74
2023/03/28 13:46:18;;;;;;;5.07;2.30;;;10.40;99.90;;;;;;4962402;28;20043;-73